createdAt,value
2022-10-17T00:01:53.702Z,82.37
2022-10-17T00:04:24.516Z,81.17
2022-10-17T00:06:53.311Z,82.07
2022-10-17T00:09:27.145Z,85.67
2022-10-17T00:11:54.612Z,88.39
2022-10-17T00:14:24.185Z,85.54
2022-10-17T00:17:21.702Z,87.73
2022-10-17T00:20:12.060Z,88.61
2022-10-17T00:23:01.064Z,85.51
2022-10-17T00:25:36.145Z,87.31
2022-10-17T00:29:20.937Z,86.59
2022-10-17T00:32:50.632Z,84.93
2022-10-17T00:49:09.372Z,94.03
2022-10-17T00:52:13.997Z,94.39
2022-10-17T01:02:11.983Z,93.84
2022-10-17T01:05:02.869Z,92.55
2022-10-17T01:14:54.780Z,92.46
2022-10-17T01:18:16.437Z,93.56
2022-10-17T01:21:20.484Z,92.33
2022-10-17T01:24:13.328Z,89.17
2022-10-17T01:27:32.843Z,88.62
2022-10-17T01:30:22.930Z,84.00
2022-10-17T01:33:18.789Z,87.77
2022-10-17T01:39:29.990Z,84.64
2022-10-17T01:42:35.036Z,86.73
2022-10-17T01:45:25.848Z,85.25
2022-10-17T01:48:10.493Z,86.32
2022-10-17T01:50:51.495Z,86.90
2022-10-17T01:54:01.068Z,86.76
2022-10-17T01:56:39.258Z,82.97
2022-10-17T01:59:42.467Z,83.83
2022-10-17T02:02:17.652Z,88.76
2022-10-17T02:04:52.656Z,85.22
2022-10-17T02:07:27.124Z,86.32
2022-10-17T02:09:57.260Z,87.45
2022-10-17T02:12:51.992Z,89.51
2022-10-17T02:15:54.807Z,90.38
2022-10-17T02:18:44.195Z,94.01
2022-10-17T02:21:37.154Z,93.17
2022-10-17T02:24:49.130Z,88.08
2022-10-17T02:27:40.626Z,92.92
2022-10-17T02:30:42.154Z,88.53
2022-10-17T02:34:04.480Z,93.43
2022-10-17T02:36:56.560Z,87.63
2022-10-17T02:39:39.197Z,89.08
2022-10-17T02:42:13.720Z,84.57
2022-10-17T02:44:46.050Z,84.77
2022-10-17T02:47:50.798Z,88.97
2022-10-17T02:50:26.741Z,92.48
2022-10-17T02:53:03.297Z,92.23
2022-10-17T02:55:44.362Z,90.01
2022-10-17T02:58:24.031Z,86.11
2022-10-17T03:00:57.202Z,84.46
2022-10-17T03:03:43.148Z,82.57
2022-10-17T03:06:14.119Z,85.61
2022-10-17T03:08:44.033Z,84.41
2022-10-17T03:11:17.771Z,87.24
2022-10-17T03:13:47.861Z,82.41
2022-10-17T03:16:18.032Z,85.51
2022-10-17T03:18:59.573Z,83.71
2022-10-17T03:21:31.951Z,88.09
2022-10-17T03:24:03.146Z,90.19
2022-10-17T03:26:30.039Z,92.00
2022-10-17T03:29:00.028Z,94.82
2022-10-17T03:31:31.036Z,96.35
2022-10-17T03:34:15.272Z,95.43
2022-10-17T03:36:55.288Z,97.28
2022-10-17T03:39:28.988Z,96.42
2022-10-17T03:42:01.047Z,95.52
2022-10-17T03:44:32.095Z,97.31
2022-10-17T03:46:59.802Z,92.37
2022-10-17T03:49:40.433Z,97.38
2022-10-17T03:52:48.464Z,93.96
2022-10-17T03:56:09.328Z,95.16
2022-10-17T03:59:08.866Z,100.00
2022-10-17T04:01:57.474Z,91.86
2022-10-17T04:04:48.234Z,98.02
2022-10-17T04:07:38.156Z,96.17
2022-10-17T04:10:06.003Z,94.32
2022-10-17T04:12:59.642Z,97.15
2022-10-17T04:15:49.764Z,89.04
2022-10-17T04:18:22.864Z,87.24
2022-10-17T04:20:58.762Z,88.53
2022-10-17T04:24:06.115Z,92.25
2022-10-17T04:27:20.260Z,89.96
2022-10-17T04:30:12.729Z,92.17
2022-10-17T04:33:04.439Z,86.92
2022-10-17T04:36:23.707Z,87.59
2022-10-17T04:41:42.016Z,87.05
2022-10-17T04:44:22.957Z,87.55
2022-10-17T04:47:20.393Z,87.69
2022-10-17T04:50:20.906Z,84.42
2022-10-17T04:53:33.918Z,89.34
2022-10-17T04:56:23.476Z,85.39
2022-10-17T04:59:16.376Z,93.56
2022-10-17T05:02:29.791Z,87.21
2022-10-17T05:05:26.508Z,93.33
2022-10-17T05:08:20.476Z,93.71
2022-10-17T05:11:14.675Z,93.89
2022-10-17T05:14:22.823Z,92.57
2022-10-17T05:17:11.216Z,90.01
2022-10-17T05:19:49.573Z,97.24
2022-10-17T05:22:39.679Z,92.97
2022-10-17T05:25:50.764Z,98.50
2022-10-17T05:28:44.147Z,96.72
2022-10-17T05:31:45.480Z,99.37
2022-10-17T05:34:42.828Z,97.13
2022-10-17T05:37:54.359Z,100.00
2022-10-17T05:40:46.660Z,100.00
2022-10-17T05:43:45.180Z,100.00
2022-10-17T05:46:54.101Z,98.98
2022-10-17T05:50:06.536Z,96.56
2022-10-17T05:53:17.251Z,100.00
2022-10-17T05:56:07.249Z,95.04
2022-10-17T05:58:57.397Z,100.00
2022-10-17T06:01:49.780Z,99.64
2022-10-17T06:04:45.643Z,98.15
2022-10-17T06:07:13.438Z,99.02
2022-10-17T06:10:27.195Z,95.39
2022-10-17T06:13:41.573Z,92.35
2022-10-17T06:16:30.099Z,96.02
2022-10-17T06:19:37.789Z,99.06
2022-10-17T06:22:19.786Z,93.01
2022-10-17T06:24:59.983Z,94.86
2022-10-17T06:27:50.710Z,97.47
2022-10-17T06:30:41.522Z,99.60
2022-10-17T06:33:28.880Z,99.25
2022-10-17T06:36:18.549Z,99.46
2022-10-17T06:39:00.245Z,94.71
2022-10-17T06:41:43.953Z,91.62
2022-10-17T06:44:49.926Z,97.71
2022-10-17T06:47:38.737Z,100.00
2022-10-17T06:50:27.170Z,100.00
2022-10-17T06:53:05.545Z,100.00
2022-10-17T06:55:39.064Z,100.00
2022-10-17T06:58:18.839Z,100.00
2022-10-17T07:00:48.474Z,100.00
2022-10-17T07:03:44.028Z,93.82
2022-10-17T07:06:19.425Z,96.53
2022-10-17T07:08:51.360Z,96.78
2022-10-17T07:11:21.341Z,97.44
2022-10-17T07:14:08.749Z,98.67
2022-10-17T07:17:16.255Z,96.23
2022-10-17T07:20:09.546Z,91.78
2022-10-17T07:22:56.967Z,95.19
2022-10-17T07:25:45.309Z,96.41
2022-10-17T07:28:55.050Z,94.04
2022-10-17T07:31:49.131Z,96.01
2022-10-17T07:34:31.636Z,96.41
2022-10-17T07:37:07.231Z,92.33
2022-10-17T07:39:57.322Z,94.79
2022-10-17T07:42:42.908Z,94.43
2022-10-17T07:45:32.536Z,94.57
2022-10-17T07:48:18.430Z,94.82
2022-10-17T07:51:33.719Z,93.80
2022-10-17T07:54:25.299Z,94.43
2022-10-17T07:57:27.628Z,93.63
2022-10-17T08:00:35.319Z,93.33
2022-10-17T08:03:11.256Z,92.81
2022-10-17T08:06:11.024Z,92.68
2022-10-17T08:09:04.066Z,92.87
2022-10-17T08:12:00.148Z,91.45
2022-10-17T08:14:58.009Z,94.22
2022-10-17T08:17:51.747Z,90.08
2022-10-17T08:20:41.752Z,89.51
2022-10-17T08:23:38.019Z,88.51
2022-10-17T08:26:25.514Z,91.19
2022-10-17T08:29:32.997Z,87.72
2022-10-17T08:32:33.021Z,86.90
2022-10-17T08:35:41.109Z,85.49
2022-10-17T08:38:35.356Z,88.33
2022-10-17T08:41:40.324Z,86.86
2022-10-17T08:44:16.440Z,85.41
2022-10-17T08:47:12.735Z,84.29
2022-10-17T08:50:04.420Z,83.82
2022-10-17T08:53:16.297Z,83.59
2022-10-17T08:56:15.360Z,84.90
2022-10-17T09:02:15.920Z,81.32
2022-10-17T09:05:13.786Z,79.98
2022-10-17T09:08:32.048Z,80.55
2022-10-17T09:11:40.279Z,84.52
2022-10-17T09:14:32.988Z,84.06
2022-10-17T09:17:20.625Z,84.38
2022-10-17T09:20:30.077Z,77.81
2022-10-17T09:23:28.611Z,79.97
2022-10-17T09:26:16.249Z,78.20
2022-10-17T09:28:59.681Z,74.90
2022-10-17T09:31:33.820Z,75.51
2022-10-17T09:34:31.151Z,74.71
2022-10-17T09:37:14.258Z,75.34
2022-10-17T09:40:05.248Z,72.85
2022-10-17T09:42:42.215Z,71.78
2022-10-17T09:45:30.402Z,71.72
2022-10-17T09:49:05.286Z,71.93
2022-10-17T09:51:45.802Z,72.88
2022-10-17T09:54:34.808Z,70.71
2022-10-17T09:57:45.289Z,71.08
2022-10-17T10:00:46.584Z,70.28
2022-10-17T10:03:38.991Z,69.80
2022-10-17T10:06:43.061Z,69.51
2022-10-17T10:09:31.036Z,69.29
2022-10-17T10:12:23.321Z,71.88
2022-10-17T10:14:58.077Z,70.86
2022-10-17T10:17:48.355Z,67.79
2022-10-17T10:20:35.535Z,68.29
2022-10-17T11:58:21.194Z,55.98
2022-10-17T12:01:10.152Z,56.54
2022-10-17T12:04:04.542Z,56.05
2022-10-17T12:07:09.471Z,59.48
2022-10-17T12:09:42.549Z,58.32
2022-10-17T12:12:36.114Z,55.07
2022-10-17T12:15:35.803Z,55.49
2022-10-17T12:18:22.865Z,59.20
2022-10-17T12:21:01.847Z,58.22
2022-10-17T12:23:36.652Z,55.69
2022-10-17T12:26:45.771Z,54.68
2022-10-17T12:29:36.957Z,54.72
2022-10-17T12:32:46.890Z,58.21
2022-10-17T12:35:38.137Z,53.99
2022-10-17T12:38:31.091Z,53.54
2022-10-17T12:41:03.150Z,49.95
2022-10-17T12:43:47.416Z,54.86
2022-10-17T12:47:12.376Z,50.83
2022-10-17T12:52:39.184Z,50.72
2022-10-17T12:55:23.799Z,50.40
2022-10-17T12:57:53.269Z,52.23
2022-10-17T13:00:59.818Z,50.29
2022-10-17T13:06:55.488Z,53.71
2022-10-17T13:09:51.008Z,50.81
2022-10-17T13:12:34.036Z,49.48
2022-10-17T13:15:26.018Z,53.14
2022-10-17T13:18:12.249Z,50.29
2022-10-17T13:21:15.051Z,51.63
2022-10-17T13:27:07.235Z,49.54
2022-10-17T13:29:49.818Z,50.01
2022-10-17T13:32:45.371Z,50.00
2022-10-17T13:35:41.906Z,52.18
2022-10-17T13:38:27.986Z,49.70
2022-10-17T13:41:36.525Z,51.22
2022-10-17T13:47:40.052Z,50.44
2022-10-17T13:50:47.983Z,50.04
2022-10-17T13:53:29.853Z,49.15
2022-10-17T13:56:30.256Z,54.41
2022-10-17T13:59:32.657Z,50.49
2022-10-17T14:02:09.661Z,53.27
2022-10-17T14:05:18.938Z,55.60
2022-10-17T14:08:14.308Z,57.01
2022-10-17T14:11:04.546Z,52.89
2022-10-17T14:13:44.738Z,51.14
2022-10-17T14:16:47.913Z,53.07
2022-10-17T14:19:46.026Z,52.38
2022-10-17T14:22:37.328Z,53.44
2022-10-17T14:25:49.721Z,54.12
2022-10-17T14:28:18.803Z,54.43
2022-10-17T14:31:02.321Z,56.74
2022-10-17T14:33:56.869Z,55.23
2022-10-17T14:36:45.784Z,59.05
2022-10-17T14:39:37.010Z,60.69
2022-10-17T14:43:01.834Z,57.51
2022-10-17T14:45:52.016Z,58.32
2022-10-17T14:48:43.439Z,58.35
2022-10-17T14:51:50.403Z,60.15
2022-10-17T14:54:33.931Z,60.98
2022-10-17T14:57:27.006Z,58.97
2022-10-17T15:00:40.051Z,56.02
2022-10-17T15:03:22.003Z,55.25
2022-10-17T15:06:27.138Z,55.68
2022-10-17T15:08:56.634Z,55.75
2022-10-17T15:11:28.189Z,57.63
2022-10-17T15:14:08.068Z,59.95
2022-10-17T15:16:45.688Z,58.28
2022-10-17T15:19:28.430Z,61.22
2022-10-17T15:22:13.547Z,60.80
2022-10-17T15:24:55.665Z,58.46
2022-10-17T15:27:35.576Z,58.68
2022-10-17T15:30:27.889Z,58.27
2022-10-17T15:33:17.490Z,60.32
2022-10-17T15:36:02.373Z,62.47
2022-10-17T15:38:51.103Z,60.75
2022-10-17T15:41:32.236Z,60.39
2022-10-17T15:44:13.010Z,62.33
2022-10-17T15:46:46.574Z,64.68
2022-10-17T15:49:26.149Z,62.06
2022-10-17T15:52:11.064Z,62.12
2022-10-17T15:55:05.475Z,62.29
2022-10-17T15:57:41.607Z,63.32
2022-10-17T16:00:23.280Z,63.09
2022-10-17T16:03:01.978Z,62.97
2022-10-17T16:05:51.931Z,64.59
2022-10-17T16:08:41.974Z,63.63
2022-10-17T16:11:19.315Z,65.52
2022-10-17T16:14:02.779Z,63.82
2022-10-17T16:16:34.056Z,64.31
2022-10-17T16:19:06.357Z,62.87
2022-10-17T16:21:42.786Z,63.93
2022-10-17T16:24:14.363Z,63.97
2022-10-17T16:26:44.407Z,63.92
2022-10-17T16:29:43.616Z,64.63
2022-10-17T16:32:11.189Z,65.71
2022-10-17T16:34:56.431Z,66.56
2022-10-17T16:37:56.080Z,66.10
2022-10-17T16:40:29.737Z,65.21
2022-10-17T16:42:59.070Z,65.06
2022-10-17T16:45:28.923Z,64.57
2022-10-17T16:47:59.667Z,64.62
2022-10-17T16:50:31.832Z,63.97
2022-10-17T16:52:59.134Z,64.16
2022-10-17T16:55:28.464Z,64.06
2022-10-17T16:57:56.157Z,64.29
2022-10-17T17:00:30.669Z,64.47
2022-10-17T17:03:27.275Z,64.22
2022-10-17T17:06:00.390Z,64.31
2022-10-17T17:08:52.919Z,64.39
2022-10-17T17:11:44.085Z,64.52
2022-10-17T17:14:20.476Z,64.66
2022-10-17T17:17:48.429Z,67.28
2022-10-17T17:20:24.406Z,66.23
2022-10-17T17:23:18.718Z,67.15
2022-10-17T17:25:51.632Z,68.95
2022-10-17T17:28:20.893Z,70.03
2022-10-17T17:31:04.299Z,68.86
2022-10-17T17:33:31.432Z,68.00
2022-10-17T17:36:29.944Z,68.10
2022-10-17T17:39:26.778Z,66.96
2022-10-17T17:42:14.506Z,66.96
2022-10-17T17:44:50.372Z,67.14
2022-10-17T17:47:19.827Z,67.04
2022-10-17T17:50:19.250Z,68.38
2022-10-17T17:53:24.128Z,70.46
2022-10-17T17:56:16.939Z,72.36
2022-10-17T17:58:49.406Z,70.34
2022-10-17T18:01:38.189Z,71.07
2022-10-17T18:04:17.107Z,72.40
2022-10-17T18:07:15.187Z,70.23
2022-10-17T18:09:51.713Z,69.67
2022-10-17T18:12:39.244Z,70.37
2022-10-17T18:15:13.403Z,68.54
2022-10-17T18:17:44.423Z,68.90
2022-10-17T18:20:21.561Z,68.23
2022-10-17T18:23:06.675Z,70.56
2022-10-17T18:25:38.044Z,71.85
2022-10-17T18:28:08.793Z,72.18
2022-10-17T18:30:38.779Z,73.04
2022-10-17T18:33:13.684Z,74.13
2022-10-17T18:36:07.320Z,74.97
2022-10-17T18:38:55.240Z,72.63
2022-10-17T18:41:43.320Z,71.13
2022-10-17T18:44:12.948Z,70.45
2022-10-17T18:49:21.504Z,78.13
2022-10-17T18:51:51.718Z,79.84
2022-10-17T18:54:36.518Z,73.96
2022-10-17T18:57:06.538Z,75.86
2022-10-17T18:59:51.663Z,72.07
2022-10-17T19:02:38.127Z,70.93
2022-10-17T19:05:10.884Z,69.72
2022-10-17T19:07:44.691Z,71.07
2022-10-17T19:10:22.296Z,69.32
2022-10-17T19:12:49.836Z,71.75
2022-10-17T19:15:23.754Z,71.96
2022-10-17T19:17:58.412Z,71.74
2022-10-17T19:20:39.401Z,69.95
2022-10-17T19:23:16.806Z,73.59
2022-10-17T19:26:02.963Z,70.04
2022-10-17T19:28:57.874Z,69.73
2022-10-17T19:31:31.885Z,74.92
2022-10-17T19:34:01.691Z,74.79
2022-10-17T19:37:10.078Z,72.03
2022-10-17T19:39:52.556Z,73.06
2022-10-17T19:42:21.331Z,73.23
2022-10-17T19:44:54.122Z,77.33
2022-10-17T19:47:39.273Z,75.38
2022-10-17T19:50:15.358Z,77.25
2022-10-17T19:52:42.543Z,72.62
2022-10-17T19:55:18.106Z,72.29
2022-10-17T19:57:48.118Z,75.52
2022-10-17T20:00:48.613Z,76.52
2022-10-17T20:03:28.153Z,72.22
2022-10-17T20:06:06.679Z,72.08
2022-10-17T20:08:34.169Z,74.62
2022-10-17T20:11:30.365Z,72.46
2022-10-17T20:14:06.975Z,73.49
2022-10-17T20:16:38.642Z,72.57
2022-10-17T20:19:16.811Z,72.39
2022-10-17T20:22:05.519Z,71.65
2022-10-17T20:24:42.676Z,76.68
2022-10-17T20:27:55.467Z,77.26
2022-10-17T20:30:24.275Z,77.58
2022-10-17T20:32:58.653Z,78.36
2022-10-17T20:35:46.509Z,78.24
2022-10-17T20:38:37.001Z,74.59
2022-10-17T20:41:09.604Z,75.09
2022-10-17T20:43:46.113Z,74.15
2022-10-17T20:46:36.915Z,74.72
2022-10-17T20:49:22.468Z,72.08
2022-10-17T20:51:49.624Z,73.52
2022-10-17T20:54:53.875Z,76.71
2022-10-17T20:57:29.623Z,77.92
2022-10-17T21:00:20.069Z,73.44
2022-10-17T21:05:25.134Z,73.76
2022-10-17T21:08:02.878Z,79.50
2022-10-17T21:10:35.278Z,74.66
2022-10-17T21:13:03.275Z,75.39
2022-10-17T21:15:33.606Z,76.42
2022-10-17T21:18:03.884Z,78.41
2022-10-17T21:20:31.958Z,82.05
2022-10-17T21:23:05.289Z,78.47
2022-10-17T21:25:49.599Z,84.81
2022-10-17T21:28:28.535Z,84.12
2022-10-17T21:31:18.645Z,87.85
2022-10-17T21:34:12.639Z,88.97
2022-10-17T21:36:43.920Z,81.45
2022-10-17T21:39:14.812Z,77.93
2022-10-17T21:41:48.407Z,75.80
2022-10-17T21:44:36.634Z,84.59
2022-10-17T21:47:17.229Z,89.33
2022-10-17T21:49:50.839Z,87.06
2022-10-17T21:52:19.602Z,82.95
2022-10-17T21:54:55.314Z,77.55
2022-10-17T21:57:26.414Z,83.35
2022-10-17T22:00:15.901Z,77.71
2022-10-17T22:02:45.737Z,78.99
2022-10-17T22:05:22.516Z,75.85
2022-10-17T22:07:57.322Z,74.26
2022-10-17T22:10:27.808Z,73.87
2022-10-17T22:12:55.213Z,75.72
2022-10-17T22:15:34.004Z,76.54
2022-10-17T22:18:21.563Z,80.04
2022-10-17T22:21:06.198Z,73.91
2022-10-17T22:23:40.792Z,74.06
2022-10-17T22:26:18.458Z,72.72
2022-10-17T22:29:09.059Z,72.27
2022-10-17T22:31:43.865Z,71.98
2022-10-17T22:34:22.519Z,72.18
2022-10-17T22:36:56.277Z,71.62
2022-10-17T22:39:23.415Z,73.01
2022-10-17T22:41:56.130Z,75.70
2022-10-17T22:44:46.729Z,79.48
2022-10-17T22:47:21.475Z,76.93
2022-10-17T22:49:52.039Z,77.77
2022-10-17T22:52:29.018Z,75.05
2022-10-17T22:54:57.650Z,82.22
2022-10-17T22:57:30.947Z,82.83
2022-10-17T23:00:08.605Z,85.00
2022-10-17T23:02:36.212Z,83.38
2022-10-17T23:05:05.663Z,86.41
2022-10-17T23:07:40.691Z,82.66
2022-10-17T23:10:13.561Z,81.94
2022-10-17T23:12:58.617Z,79.56
2022-10-17T23:15:32.294Z,78.23
2022-10-17T23:21:01.479Z,81.36
2022-10-17T23:23:29.101Z,88.72
2022-10-17T23:26:17.906Z,87.38
2022-10-17T23:28:44.984Z,91.11
2022-10-17T23:31:22.222Z,92.41
2022-10-17T23:33:50.709Z,90.13
2022-10-17T23:36:42.598Z,91.66
2022-10-17T23:39:21.391Z,83.39
2022-10-17T23:42:18.807Z,80.14
2022-10-17T23:44:56.923Z,82.54
2022-10-17T23:47:32.259Z,83.98
2022-10-17T23:50:10.568Z,82.43
2022-10-17T23:53:03.479Z,84.09
2022-10-17T23:55:41.160Z,84.21
2022-10-17T23:58:11.395Z,88.30
